createdAt,value
2019-04-14T00:00:38.250Z,7.60
2019-04-14T00:03:09.318Z,7.50
2019-04-14T00:05:38.783Z,7.50
2019-04-14T00:08:08.873Z,7.40
2019-04-14T00:10:38.422Z,7.40
2019-04-14T00:13:08.862Z,7.30
2019-04-14T00:15:42.711Z,7.40
2019-04-14T00:18:09.708Z,7.30
2019-04-14T00:20:39.123Z,7.10
2019-04-14T00:23:08.791Z,7.20
2019-04-14T00:25:39.060Z,7.10
2019-04-14T00:28:09.504Z,7.00
2019-04-14T00:30:40.420Z,7.10
2019-04-14T00:33:12.685Z,7.00
2019-04-14T00:36:00.273Z,7.20
2019-04-14T00:38:32.292Z,7.20
2019-04-14T00:41:07.110Z,7.10
2019-04-14T00:43:53.342Z,6.80
2019-04-14T00:46:25.379Z,6.90
2019-04-14T00:48:55.955Z,6.90
2019-04-14T00:51:26.515Z,7.00
2019-04-14T00:53:56.236Z,6.90
2019-04-14T00:56:25.916Z,7.00
2019-04-14T00:58:56.095Z,6.80
2019-04-14T01:01:26.508Z,6.90
2019-04-14T01:03:56.946Z,6.90
2019-04-14T01:06:27.298Z,6.80
2019-04-14T01:08:57.556Z,6.80
2019-04-14T01:11:27.108Z,6.70
2019-04-14T01:13:57.152Z,6.80
2019-04-14T01:16:28.037Z,6.70
2019-04-14T01:18:58.068Z,6.60
2019-04-14T01:21:28.449Z,6.70
2019-04-14T01:23:58.922Z,6.70
2019-04-14T01:26:28.878Z,6.70
2019-04-14T01:28:59.350Z,6.70
2019-04-14T01:31:29.601Z,6.70
2019-04-14T01:33:59.802Z,6.90
2019-04-14T01:36:29.866Z,6.90
2019-04-14T01:39:00.255Z,6.80
2019-04-14T01:41:30.320Z,6.70
2019-04-14T01:44:00.316Z,6.80
2019-04-14T01:46:32.582Z,6.80
2019-04-14T01:49:00.850Z,6.60
2019-04-14T01:51:33.060Z,6.70
2019-04-14T01:54:04.319Z,6.70
2019-04-14T01:56:44.984Z,6.80
2019-04-14T01:59:15.289Z,6.70
2019-04-14T02:01:46.318Z,6.70
2019-04-14T02:04:15.982Z,6.80
2019-04-14T02:06:46.223Z,6.90
2019-04-14T02:09:16.200Z,6.70
2019-04-14T02:11:46.642Z,6.80
2019-04-14T02:14:16.883Z,6.80
2019-04-14T02:16:50.868Z,6.80
2019-04-14T02:19:17.756Z,7.00
2019-04-14T02:21:47.815Z,6.90
2019-04-14T02:24:17.844Z,6.90
2019-04-14T02:26:47.976Z,6.80
2019-04-14T02:29:17.462Z,6.90
2019-04-14T02:32:21.470Z,6.90
2019-04-14T02:34:57.981Z,6.90
2019-04-14T02:39:53.896Z,6.80
2019-04-14T02:42:27.700Z,6.60
2019-04-14T02:49:50.755Z,6.50
2019-04-14T02:52:26.660Z,6.50
2019-04-14T03:02:30.391Z,6.50
2019-04-14T03:04:56.835Z,6.40
2019-04-14T03:07:34.220Z,6.30
2019-04-14T03:09:52.453Z,6.30
2019-04-14T03:15:01.478Z,6.50
2019-04-14T03:20:20.722Z,6.40
2019-04-14T03:22:43.800Z,6.40
2019-04-14T03:25:11.492Z,6.50
2019-04-14T03:33:21.630Z,6.30
2019-04-14T03:36:12.097Z,6.40
2019-04-14T03:37:59.501Z,6.40
2019-04-14T03:40:34.399Z,6.40
2019-04-14T03:45:55.211Z,6.60
2019-04-14T03:48:34.620Z,6.70
2019-04-14T03:50:37.834Z,6.90
2019-04-14T03:55:54.419Z,6.80
2019-04-14T03:58:18.657Z,6.80
2019-04-14T04:00:49.155Z,6.80
2019-04-14T04:03:19.610Z,6.70
2019-04-14T04:05:49.949Z,6.70
2019-04-14T04:08:20.131Z,6.70
2019-04-14T04:10:51.154Z,6.80
2019-04-14T04:13:21.565Z,6.80
2019-04-14T04:15:52.018Z,6.90
2019-04-14T04:18:26.577Z,6.90
2019-04-14T04:21:14.033Z,6.90
2019-04-14T04:23:47.487Z,6.80
2019-04-14T04:26:21.467Z,6.80
2019-04-14T04:28:56.232Z,6.80
2019-04-14T04:31:33.307Z,6.70
2019-04-14T04:34:10.041Z,6.70
2019-04-14T04:36:57.599Z,6.70
2019-04-14T04:39:28.588Z,6.50
2019-04-14T04:41:58.025Z,6.50
2019-04-14T04:44:27.411Z,6.70
2019-04-14T04:46:56.970Z,6.80
2019-04-14T04:49:28.159Z,6.80
2019-04-14T04:51:57.431Z,6.90
2019-04-14T04:54:27.840Z,6.80
2019-04-14T04:56:58.022Z,6.90
2019-04-14T04:59:27.753Z,6.90
2019-04-14T05:01:58.045Z,6.90
2019-04-14T05:04:28.576Z,7.00
2019-04-14T05:07:01.287Z,7.10
2019-04-14T05:09:39.167Z,7.10
2019-04-14T05:12:17.328Z,7.20
2019-04-14T05:15:01.095Z,7.20
2019-04-14T05:17:35.051Z,7.40
2019-04-14T05:20:05.280Z,7.50
2019-04-14T05:22:35.408Z,7.40
2019-04-14T05:25:06.345Z,7.50
2019-04-14T05:27:36.604Z,7.50
2019-04-14T05:30:06.986Z,7.60
2019-04-14T05:32:36.934Z,7.60
2019-04-14T05:35:07.448Z,7.50
2019-04-14T05:37:37.851Z,7.60
2019-04-14T05:40:08.151Z,7.50
2019-04-14T05:42:38.452Z,7.70
2019-04-14T05:45:08.759Z,7.90
2019-04-14T05:47:39.278Z,7.90
2019-04-14T05:50:09.511Z,8.00
2019-04-14T05:52:40.371Z,8.10
2019-04-14T05:55:11.251Z,8.20
2019-04-14T05:57:41.645Z,8.20
2019-04-14T06:00:12.851Z,8.30
2019-04-14T06:02:42.218Z,8.40
2019-04-14T06:05:12.947Z,8.30
2019-04-14T06:07:42.430Z,8.40
2019-04-14T06:10:11.848Z,8.30
2019-04-14T06:12:41.211Z,8.40
2019-04-14T06:15:10.996Z,8.40
2019-04-14T06:17:40.429Z,8.40
2019-04-14T06:20:10.128Z,8.40
2019-04-14T06:22:39.483Z,8.20
2019-04-14T06:25:09.372Z,8.30
2019-04-14T06:27:38.760Z,8.40
2019-04-14T06:30:19.096Z,8.20
2019-04-14T06:32:49.630Z,8.10
2019-04-14T06:35:26.082Z,8.20
2019-04-14T06:37:57.098Z,8.00
2019-04-14T06:40:28.090Z,8.10
2019-04-14T06:42:57.505Z,8.00
2019-04-14T06:45:26.847Z,8.10
2019-04-14T06:47:56.205Z,8.10
2019-04-14T06:50:25.548Z,8.20
2019-04-14T06:52:54.914Z,8.20
2019-04-14T06:55:24.316Z,8.30
2019-04-14T06:57:53.674Z,8.20
2019-04-14T07:00:23.037Z,8.20
2019-04-14T07:02:52.405Z,8.10
2019-04-14T07:05:21.737Z,8.00
2019-04-14T07:07:56.852Z,8.00
2019-04-14T07:10:22.160Z,8.10
2019-04-14T07:12:51.515Z,8.10
2019-04-14T07:15:20.871Z,8.20
2019-04-14T07:17:50.221Z,8.10
2019-04-14T07:20:19.583Z,8.10
2019-04-14T07:22:48.954Z,8.10
2019-04-14T07:25:18.310Z,8.00
2019-04-14T07:27:47.821Z,8.00
2019-04-14T07:30:34.091Z,8.20
2019-04-14T07:33:11.061Z,8.20
2019-04-14T07:35:51.251Z,8.30
2019-04-14T07:38:38.768Z,8.40
2019-04-14T07:41:22.073Z,8.50
2019-04-14T07:43:53.083Z,8.60
2019-04-14T07:46:30.259Z,8.60
2019-04-14T07:49:01.278Z,8.70
2019-04-14T07:51:50.546Z,8.80
2019-04-14T07:54:27.320Z,8.90
2019-04-14T07:57:14.519Z,9.10
2019-04-14T08:00:01.687Z,9.20
2019-04-14T08:02:32.751Z,9.20
2019-04-14T08:05:03.797Z,9.40
2019-04-14T08:07:33.406Z,9.40
2019-04-14T08:10:02.907Z,9.50
2019-04-14T08:12:35.062Z,9.70
2019-04-14T08:15:03.966Z,9.50
2019-04-14T08:17:33.366Z,9.50
2019-04-14T08:20:02.993Z,9.50
2019-04-14T08:22:32.354Z,9.50
2019-04-14T08:25:01.713Z,9.60
2019-04-14T08:27:31.129Z,9.60
2019-04-14T08:30:00.470Z,10.00
2019-04-14T08:32:29.965Z,10.10
2019-04-14T08:34:59.391Z,10.10
2019-04-14T08:37:28.755Z,10.20
2019-04-14T08:39:58.115Z,10.20
2019-04-14T08:42:45.345Z,10.30
2019-04-14T08:45:16.339Z,10.50
2019-04-14T08:47:50.312Z,10.50
2019-04-14T08:50:21.372Z,10.70
2019-04-14T08:52:52.414Z,10.80
2019-04-14T08:55:23.544Z,11.00
2019-04-14T08:57:57.263Z,11.10
2019-04-14T09:00:37.331Z,11.30
2019-04-14T09:03:11.833Z,11.20
2019-04-14T09:05:52.214Z,11.10
2019-04-14T09:08:23.224Z,11.10
2019-04-14T09:10:54.230Z,11.00
2019-04-14T09:13:23.602Z,11.00
2019-04-14T09:15:53.018Z,11.10
2019-04-14T09:18:22.392Z,11.10
2019-04-14T09:20:52.794Z,11.40
2019-04-14T09:23:22.486Z,11.60
2019-04-14T09:25:51.861Z,11.70
2019-04-14T09:28:21.218Z,11.70
2019-04-14T09:30:50.587Z,11.90
2019-04-14T09:33:19.999Z,12.00
2019-04-14T09:35:49.378Z,12.00
2019-04-14T09:38:18.782Z,12.00
2019-04-14T09:40:48.137Z,12.20
2019-04-14T09:43:17.519Z,12.20
2019-04-14T09:45:46.895Z,12.20
2019-04-14T09:48:16.456Z,12.40
2019-04-14T09:50:45.903Z,12.50
2019-04-14T09:53:15.270Z,12.70
2019-04-14T09:55:44.709Z,12.80
2019-04-14T09:58:14.159Z,13.00
2019-04-14T10:00:43.518Z,13.10
2019-04-14T10:03:12.965Z,13.00
2019-04-14T10:05:42.327Z,13.10
2019-04-14T10:08:11.699Z,13.10
2019-04-14T10:10:41.141Z,13.20
2019-04-14T10:13:10.608Z,13.30
2019-04-14T10:15:40.305Z,13.20
2019-04-14T10:18:09.708Z,13.00
2019-04-14T10:20:39.794Z,12.80
2019-04-14T10:23:09.170Z,13.00
2019-04-14T10:25:38.576Z,13.10
2019-04-14T10:28:08.023Z,13.30
2019-04-14T10:30:37.382Z,13.50
2019-04-14T10:33:06.760Z,13.50
2019-04-14T10:35:36.150Z,13.70
2019-04-14T10:38:05.602Z,13.70
2019-04-14T10:40:35.064Z,13.90
2019-04-14T10:43:04.698Z,13.60
2019-04-14T10:45:34.090Z,13.80
2019-04-14T10:48:03.566Z,13.90
2019-04-14T10:50:33.124Z,13.90
2019-04-14T10:53:02.580Z,14.00
2019-04-14T10:55:32.095Z,14.20
2019-04-14T10:58:01.514Z,14.40
2019-04-14T11:00:30.910Z,14.50
2019-04-14T11:03:00.301Z,14.80
2019-04-14T11:05:31.321Z,14.70
2019-04-14T11:08:00.681Z,14.60
2019-04-14T11:10:30.102Z,14.50
2019-04-14T11:12:59.519Z,14.40
2019-04-14T11:15:28.918Z,14.40
2019-04-14T11:17:58.268Z,14.10
2019-04-14T11:20:27.629Z,14.40
2019-04-14T11:23:03.172Z,14.50
2019-04-14T11:25:28.040Z,14.80
2019-04-14T11:27:57.489Z,14.90
2019-04-14T11:30:26.859Z,14.70
2019-04-14T11:33:00.617Z,15.10
2019-04-14T11:35:48.098Z,14.90
2019-04-14T11:38:22.068Z,15.20
2019-04-14T11:40:55.776Z,15.40
2019-04-14T11:43:25.154Z,15.40
2019-04-14T11:45:54.779Z,15.20
2019-04-14T11:48:24.200Z,15.30
2019-04-14T11:50:53.601Z,14.80
2019-04-14T11:53:23.374Z,14.90
2019-04-14T11:55:52.883Z,14.70
2019-04-14T11:58:22.242Z,14.80
2019-04-14T12:00:53.376Z,14.60
2019-04-14T12:03:27.135Z,14.20
2019-04-14T12:05:58.151Z,14.40
2019-04-14T12:08:32.082Z,14.30
2019-04-14T12:11:01.831Z,14.50
2019-04-14T12:13:31.191Z,14.70
2019-04-14T12:16:00.566Z,14.80
2019-04-14T12:18:29.987Z,14.70
2019-04-14T12:20:59.383Z,15.00
2019-04-14T12:23:28.778Z,15.00
2019-04-14T12:26:05.155Z,14.90
2019-04-14T12:28:29.243Z,15.20
2019-04-14T12:30:59.768Z,15.20
2019-04-14T12:33:29.383Z,14.90
2019-04-14T12:35:58.772Z,14.70
2019-04-14T12:38:28.200Z,14.50
2019-04-14T12:40:59.360Z,14.30
2019-04-14T12:43:42.528Z,14.50
2019-04-14T12:46:29.745Z,14.40
2019-04-14T12:49:16.056Z,14.40
2019-04-14T12:51:56.115Z,14.40
2019-04-14T12:54:26.756Z,14.40
2019-04-14T12:56:56.117Z,14.70
2019-04-14T12:59:25.868Z,14.60
2019-04-14T13:02:11.048Z,14.80
2019-04-14T13:04:40.181Z,15.30
2019-04-14T13:07:09.766Z,15.10
2019-04-14T13:09:39.234Z,14.90
2019-04-14T13:12:10.251Z,14.90
2019-04-14T13:14:39.794Z,15.00
2019-04-14T13:17:09.166Z,15.10
2019-04-14T13:19:38.641Z,15.00
2019-04-14T13:22:08.105Z,15.10
2019-04-14T13:24:37.487Z,15.30
2019-04-14T13:27:07.011Z,15.30
2019-04-14T13:29:36.531Z,15.30
2019-04-14T13:32:06.630Z,15.70
2019-04-14T13:34:36.137Z,15.80
2019-04-14T13:37:05.495Z,15.90
2019-04-14T13:39:34.859Z,15.50
2019-04-14T13:42:04.348Z,15.20
2019-04-14T13:44:33.741Z,14.90
2019-04-14T13:47:03.087Z,14.70
2019-04-14T13:49:32.469Z,14.90
2019-04-14T13:52:01.824Z,15.10
2019-04-14T13:54:31.257Z,15.30
2019-04-14T13:57:00.683Z,15.30
2019-04-14T13:59:30.168Z,15.20
2019-04-14T14:01:59.523Z,14.90
2019-04-14T14:04:28.882Z,15.10
2019-04-14T14:06:58.278Z,14.90
2019-04-14T14:09:27.638Z,15.00
2019-04-14T14:12:13.751Z,15.10
2019-04-14T14:14:50.453Z,14.90
2019-04-14T14:17:21.456Z,14.70
2019-04-14T14:19:55.480Z,14.30
2019-04-14T14:22:32.387Z,14.30
2019-04-14T14:25:12.639Z,14.50
2019-04-14T14:27:42.006Z,14.40
2019-04-14T14:30:13.163Z,14.50
2019-04-14T14:32:42.580Z,14.30
2019-04-14T14:35:12.118Z,13.70
2019-04-14T14:37:41.464Z,13.50
2019-04-14T14:40:11.226Z,13.50
2019-04-14T14:42:40.667Z,13.60
2019-04-14T14:45:27.600Z,13.40
2019-04-14T14:48:04.499Z,13.70
2019-04-14T14:50:38.392Z,13.70
2019-04-14T14:53:12.283Z,13.80
2019-04-14T14:55:38.918Z,13.80
2019-04-14T14:58:08.346Z,13.60
2019-04-14T15:00:37.723Z,13.70
2019-04-14T15:03:07.424Z,13.50
2019-04-14T15:05:36.792Z,13.60
2019-04-14T15:08:06.159Z,13.80
2019-04-14T15:10:35.611Z,13.90
2019-04-14T15:13:05.146Z,14.00
2019-04-14T15:15:34.586Z,14.00
2019-04-14T15:18:04.376Z,13.70
2019-04-14T15:20:33.982Z,14.00
2019-04-14T15:23:03.410Z,13.70
2019-04-14T15:25:32.846Z,13.70
2019-04-14T15:28:02.203Z,13.50
2019-04-14T15:30:31.780Z,13.50
2019-04-14T15:33:01.150Z,13.60
2019-04-14T15:35:30.559Z,13.70
2019-04-14T15:38:00.072Z,13.70
2019-04-14T15:40:29.496Z,13.50
2019-04-14T15:42:58.859Z,13.10
2019-04-14T15:45:28.333Z,13.40
2019-04-14T15:47:57.687Z,13.20
2019-04-14T15:50:27.116Z,13.00
2019-04-14T15:52:56.483Z,13.10
2019-04-14T15:55:25.837Z,12.90
2019-04-14T15:58:02.697Z,13.10
2019-04-14T16:00:33.766Z,13.20
2019-04-14T16:03:20.854Z,13.20
2019-04-14T16:06:04.134Z,13.10
2019-04-14T16:08:41.096Z,13.10
2019-04-14T16:11:12.070Z,13.10
2019-04-14T16:13:48.617Z,13.30
2019-04-14T16:16:22.343Z,13.30
2019-04-14T16:18:59.085Z,13.20
2019-04-14T16:21:28.450Z,13.30
2019-04-14T16:23:57.833Z,13.20
2019-04-14T16:26:28.903Z,13.10
2019-04-14T16:29:02.818Z,13.10
2019-04-14T16:31:50.106Z,13.00
2019-04-14T16:34:27.103Z,13.10
2019-04-14T16:36:56.905Z,13.10
2019-04-14T16:39:26.329Z,12.90
2019-04-14T16:41:55.742Z,13.00
2019-04-14T16:44:25.145Z,13.00
2019-04-14T16:46:54.523Z,12.80
2019-04-14T16:49:23.881Z,12.70
2019-04-14T16:51:54.968Z,12.90
2019-04-14T16:54:31.664Z,13.00
2019-04-14T16:57:20.803Z,12.80
2019-04-14T16:59:50.168Z,12.90
2019-04-14T17:02:19.535Z,12.70
2019-04-14T17:04:48.911Z,12.50
2019-04-14T17:07:18.286Z,12.40
2019-04-14T17:09:47.734Z,12.40
2019-04-14T17:12:17.177Z,12.20
2019-04-14T17:14:54.135Z,12.30
2019-04-14T17:17:41.310Z,12.10
2019-04-14T17:20:12.475Z,12.10
2019-04-14T17:22:46.211Z,12.10
2019-04-14T17:25:23.349Z,12.00
2019-04-14T17:27:57.123Z,12.00
2019-04-14T17:30:28.184Z,11.80
2019-04-14T17:32:59.267Z,11.90
2019-04-14T17:35:45.676Z,11.80
2019-04-14T17:38:19.596Z,11.80
2019-04-14T17:40:56.595Z,11.90
2019-04-14T17:43:27.613Z,11.70
2019-04-14T17:45:58.619Z,11.50
2019-04-14T17:48:44.916Z,11.40
2019-04-14T17:51:24.594Z,11.30
2019-04-14T17:53:55.614Z,11.30
2019-04-14T17:56:26.613Z,11.30
2019-04-14T17:59:03.630Z,11.40
2019-04-14T18:01:49.623Z,11.50
2019-04-14T18:04:32.463Z,11.50
2019-04-14T18:07:03.607Z,11.30
2019-04-14T18:09:40.248Z,11.40
2019-04-14T18:12:11.274Z,11.40
2019-04-14T18:14:42.295Z,11.20
2019-04-14T18:17:13.325Z,11.20
2019-04-14T18:19:44.331Z,11.00
2019-04-14T18:22:13.789Z,11.10
2019-04-14T18:24:43.151Z,11.00
2019-04-14T18:27:12.532Z,11.00
2019-04-14T18:29:43.671Z,11.20
2019-04-14T18:32:17.101Z,11.20
2019-04-14T18:34:50.941Z,11.30
2019-04-14T18:37:24.816Z,11.10
2019-04-14T18:39:58.753Z,11.10
2019-04-14T18:42:32.271Z,10.90
2019-04-14T18:45:18.141Z,11.00
2019-04-14T18:47:49.156Z,10.90
2019-04-14T18:50:20.753Z,10.70
2019-04-14T18:53:00.500Z,10.70
2019-04-14T18:55:43.463Z,10.70
2019-04-14T18:58:14.705Z,10.80
2019-04-14T19:00:46.021Z,10.80
2019-04-14T19:03:16.289Z,10.80
2019-04-14T19:05:46.056Z,10.80
2019-04-14T19:08:15.785Z,10.80
2019-04-14T19:10:47.120Z,10.90
2019-04-14T19:13:27.252Z,10.90
2019-04-14T19:16:01.000Z,10.80
2019-04-14T19:18:32.259Z,10.80
2019-04-14T19:21:03.441Z,10.70
2019-04-14T19:23:32.983Z,10.70
2019-04-14T19:26:02.490Z,10.70
2019-04-14T19:28:31.918Z,10.80
2019-04-14T19:31:01.300Z,10.70
2019-04-14T19:33:30.667Z,10.80
2019-04-14T19:36:00.034Z,10.70
2019-04-14T19:38:29.400Z,10.60
2019-04-14T19:40:58.937Z,10.50
2019-04-14T19:43:28.349Z,10.60
2019-04-14T19:45:57.847Z,10.40
2019-04-14T19:48:27.297Z,10.50
2019-04-14T19:50:56.661Z,10.70
2019-04-14T19:53:26.039Z,10.80
2019-04-14T19:55:55.396Z,10.70
2019-04-14T19:58:24.814Z,10.70
2019-04-14T20:00:54.171Z,10.70
2019-04-14T20:03:23.548Z,10.70
2019-04-14T20:05:52.894Z,10.70
2019-04-14T20:08:22.366Z,10.80
2019-04-14T20:10:51.735Z,10.60
2019-04-14T20:13:21.130Z,10.50
2019-04-14T20:15:57.955Z,10.50
2019-04-14T20:18:47.242Z,10.40
2019-04-14T20:21:34.555Z,10.40
2019-04-14T20:24:08.580Z,10.20
2019-04-14T20:26:48.258Z,10.30
2019-04-14T20:29:19.288Z,10.20
2019-04-14T20:32:09.727Z,10.20
2019-04-14T20:34:39.125Z,10.10
2019-04-14T20:37:09.036Z,10.00
2019-04-14T20:39:38.557Z,10.10
2019-04-14T20:42:08.334Z,10.00
2019-04-14T20:44:37.783Z,10.10
2019-04-14T20:47:08.798Z,10.00
2019-04-14T20:49:38.401Z,10.00
2019-04-14T20:52:07.928Z,10.00
2019-04-14T20:54:37.346Z,10.10
2019-04-14T20:57:06.851Z,10.20
2019-04-14T20:59:36.268Z,10.40
2019-04-14T21:02:10.263Z,10.30
2019-04-14T21:04:57.387Z,10.30
2019-04-14T21:07:31.170Z,10.30
2019-04-14T21:10:10.908Z,10.20
2019-04-14T21:12:44.652Z,10.20
2019-04-14T21:15:27.746Z,10.00
2019-04-14T21:18:01.179Z,10.10
2019-04-14T21:20:47.449Z,10.10
2019-04-14T21:23:18.453Z,10.20
2019-04-14T21:26:00.702Z,10.20
2019-04-14T21:28:49.562Z,10.40
2019-04-14T21:31:29.528Z,10.40
2019-04-14T21:34:03.488Z,10.50
2019-04-14T21:36:49.367Z,10.40
2019-04-14T21:39:36.419Z,10.50
2019-04-14T21:42:06.351Z,10.50
2019-04-14T21:44:35.765Z,10.40
2019-04-14T21:47:05.237Z,10.40
2019-04-14T21:49:34.611Z,10.40
2019-04-14T21:52:05.653Z,10.30
2019-04-14T21:54:35.022Z,10.10
2019-04-14T21:57:15.357Z,10.10
2019-04-14T22:00:02.919Z,10.10
2019-04-14T22:02:50.170Z,10.10
2019-04-14T22:05:36.320Z,9.90
2019-04-14T22:08:07.384Z,9.80
2019-04-14T22:10:40.938Z,9.80
2019-04-14T22:13:10.378Z,9.80
2019-04-14T22:15:39.722Z,9.80
2019-04-14T22:18:09.146Z,9.80
2019-04-14T22:20:38.566Z,9.80
2019-04-14T22:23:09.610Z,9.80
2019-04-14T22:25:39.017Z,9.70
2019-04-14T22:28:08.431Z,9.80
2019-04-14T22:30:37.848Z,10.00
2019-04-14T22:33:07.352Z,9.90
2019-04-14T22:35:36.677Z,9.70
2019-04-14T22:38:06.158Z,9.70
2019-04-14T22:40:35.523Z,9.60
2019-04-14T22:43:05.026Z,9.70
2019-04-14T22:45:34.615Z,9.60
2019-04-14T22:48:04.158Z,9.60
2019-04-14T22:50:33.517Z,9.70
2019-04-14T22:53:02.867Z,9.80
2019-04-14T22:55:32.548Z,9.70
2019-04-14T22:58:01.886Z,9.80
2019-04-14T23:00:32.947Z,9.80
2019-04-14T23:03:12.899Z,9.90
2019-04-14T23:06:00.074Z,9.90
2019-04-14T23:08:45.850Z,10.00
2019-04-14T23:11:33.082Z,10.00
2019-04-14T23:14:20.322Z,9.90
2019-04-14T23:17:07.223Z,9.80
2019-04-14T23:19:44.146Z,9.70
2019-04-14T23:22:15.295Z,9.70
2019-04-14T23:24:46.274Z,9.60
2019-04-14T23:27:15.631Z,9.50
2019-04-14T23:29:44.988Z,9.50
2019-04-14T23:32:14.315Z,9.40
2019-04-14T23:34:43.662Z,9.50
2019-04-14T23:37:13.008Z,9.50
2019-04-14T23:39:42.442Z,9.50
2019-04-14T23:42:11.792Z,9.50
2019-04-14T23:44:42.054Z,9.60
2019-04-14T23:47:11.390Z,9.50
2019-04-14T23:49:40.749Z,9.50
2019-04-14T23:52:10.114Z,9.40
2019-04-14T23:54:39.532Z,9.40
2019-04-14T23:57:08.871Z,9.30
2019-04-14T23:59:38.236Z,9.40
